EJU15QA EGCC-EHAM
Flight info
| Callsign | EJU15QA |
|---|---|
| Flight time | 0h 52m |
| Altitude | 33000 |
| Route | DESIG L603 LAMSO |
| Aircraft | A320/M-SDE2E3FGHIJ1RWXYZ/LB1 |
Departure
| Time | 2026-05-05 17:42 |
|---|---|
| Airport | Manchester Airport (EGCC) |
Arrival
| Time | 2026-05-05 18:34 |
|---|---|
| Airport | Amsterdam Airport Schiphol (EHAM) |
| Time | Latitude | Longitude | Altitude | Speed | Heading |
|---|---|---|---|---|---|
| 2026-05-05 17:08 | 53.36120 | -2.26753 | 244 ft | 0 kts | 323° |
| 2026-05-05 17:30 | 53.36115 | -2.26746 | 244 ft | 2 kts | 321° |
| 2026-05-05 17:30 | 53.36102 | -2.26729 | 244 ft | 2 kts | 318° |
| 2026-05-05 17:30 | 53.36090 | -2.26710 | 244 ft | 2 kts | 313° |
| 2026-05-05 17:30 | 53.36080 | -2.26689 | 247 ft | 2 kts | 300° |
| 2026-05-05 17:31 | 53.36073 | -2.26664 | 249 ft | 2 kts | 270° |
| 2026-05-05 17:31 | 53.36077 | -2.26638 | 250 ft | 2 kts | 234° |
| 2026-05-05 17:31 | 53.36081 | -2.26630 | 250 ft | 0 kts | 231° |
| 2026-05-05 17:33 | 53.36070 | -2.26652 | 250 ft | 6 kts | 231° |
| 2026-05-05 17:33 | 53.36030 | -2.26736 | 250 ft | 11 kts | 233° |
| 2026-05-05 17:34 | 53.35999 | -2.26807 | 249 ft | 0 kts | 232° |
| 2026-05-05 17:34 | 53.35991 | -2.26821 | 248 ft | 5 kts | 227° |
| 2026-05-05 17:34 | 53.35934 | -2.26835 | 248 ft | 12 kts | 167° |
| 2026-05-05 17:35 | 53.35856 | -2.26926 | 247 ft | 18 kts | 233° |
| 2026-05-05 17:35 | 53.35801 | -2.27080 | 246 ft | 10 kts | 238° |
| 2026-05-05 17:35 | 53.35792 | -2.27103 | 245 ft | 4 kts | 229° |
| 2026-05-05 17:35 | 53.35754 | -2.27173 | 244 ft | 11 kts | 231° |
| 2026-05-05 17:36 | 53.35690 | -2.27306 | 243 ft | 18 kts | 231° |
| 2026-05-05 17:36 | 53.35615 | -2.27464 | 241 ft | 17 kts | 233° |
| 2026-05-05 17:36 | 53.35527 | -2.27643 | 239 ft | 22 kts | 231° |
| 2026-05-05 17:36 | 53.35458 | -2.27864 | 237 ft | 21 kts | 276° |
| 2026-05-05 17:37 | 53.35383 | -2.28038 | 238 ft | 20 kts | 226° |
| 2026-05-05 17:37 | 53.35277 | -2.28212 | 232 ft | 23 kts | 223° |
| 2026-05-05 17:37 | 53.35169 | -2.28427 | 229 ft | 25 kts | 231° |
| 2026-05-05 17:37 | 53.35054 | -2.28664 | 227 ft | 28 kts | 230° |
| 2026-05-05 17:38 | 53.34916 | -2.28907 | 223 ft | 30 kts | 227° |
| 2026-05-05 17:38 | 53.34777 | -2.29175 | 224 ft | 31 kts | 231° |
| 2026-05-05 17:38 | 53.34648 | -2.29342 | 222 ft | 9 kts | 185° |
| 2026-05-05 17:38 | 53.34619 | -2.29343 | 216 ft | 0 kts | 179° |
| 2026-05-05 17:41 | 53.34618 | -2.29343 | 216 ft | 1 kts | 179° |
| 2026-05-05 17:41 | 53.34546 | -2.29293 | 224 ft | 20 kts | 134° |
| 2026-05-05 17:41 | 53.34581 | -2.29132 | 216 ft | 21 kts | 50° |
| 2026-05-05 17:41 | 53.34845 | -2.28590 | 226 ft | 99 kts | 51° |
| 2026-05-05 17:42 | 53.35421 | -2.27398 | 242 ft | 161 kts | 51° |
| 2026-05-05 17:42 | 53.36220 | -2.25756 | 413 ft | 197 kts | 50° |
| 2026-05-05 17:42 | 53.37148 | -2.23898 | 879 ft | 220 kts | 49° |
| 2026-05-05 17:42 | 53.38207 | -2.21808 | 1325 ft | 247 kts | 49° |
| 2026-05-05 17:43 | 53.39351 | -2.19553 | 2001 ft | 260 kts | 49° |
| 2026-05-05 17:43 | 53.40515 | -2.17181 | 2859 ft | 266 kts | 50° |
| 2026-05-05 17:43 | 53.41667 | -2.14744 | 3766 ft | 270 kts | 51° |
| 2026-05-05 17:43 | 53.42839 | -2.12258 | 4668 ft | 272 kts | 52° |
| 2026-05-05 17:44 | 53.43983 | -2.09720 | 5585 ft | 274 kts | 52° |
| 2026-05-05 17:44 | 53.45126 | -2.07138 | 6439 ft | 277 kts | 52° |
| 2026-05-05 17:44 | 53.46292 | -2.04532 | 7285 ft | 281 kts | 52° |
| 2026-05-05 17:44 | 53.47485 | -2.01906 | 8109 ft | 285 kts | 52° |
| 2026-05-05 17:45 | 53.48707 | -1.99254 | 8915 ft | 289 kts | 51° |
| 2026-05-05 17:45 | 53.49954 | -1.96595 | 9703 ft | 292 kts | 51° |
| 2026-05-05 17:45 | 53.51207 | -1.93859 | 10367 ft | 301 kts | 58° |
| 2026-05-05 17:45 | 53.51862 | -1.90472 | 10832 ft | 315 kts | 88° |
| 2026-05-05 17:46 | 53.51416 | -1.86838 | 11296 ft | 327 kts | 118° |
| 2026-05-05 17:46 | 53.49931 | -1.83915 | 11805 ft | 335 kts | 147° |
| 2026-05-05 17:46 | 53.47800 | -1.82527 | 12451 ft | 337 kts | 175° |
| 2026-05-05 17:46 | 53.45490 | -1.82959 | 13100 ft | 338 kts | 202° |
| 2026-05-05 17:47 | 53.43552 | -1.85148 | 13746 ft | 340 kts | 230° |
| 2026-05-05 17:47 | 53.42406 | -1.88589 | 14380 ft | 342 kts | 251° |
| 2026-05-05 17:47 | 53.41525 | -1.92324 | 14965 ft | 347 kts | 238° |
| 2026-05-05 17:47 | 53.39860 | -1.95232 | 15624 ft | 350 kts | 212° |
| 2026-05-05 17:48 | 53.37567 | -1.96599 | 16230 ft | 355 kts | 186° |
| 2026-05-05 17:48 | 53.35099 | -1.96258 | 16788 ft | 361 kts | 166° |
| 2026-05-05 17:48 | 53.32760 | -1.94685 | 17334 ft | 366 kts | 150° |
| 2026-05-05 17:48 | 53.30775 | -1.92019 | 17894 ft | 370 kts | 131° |
| 2026-05-05 17:49 | 53.29464 | -1.88326 | 18441 ft | 374 kts | 108° |
| 2026-05-05 17:49 | 53.29119 | -1.84031 | 18967 ft | 376 kts | 84° |
| 2026-05-05 17:49 | 53.29804 | -1.79831 | 19481 ft | 379 kts | 62° |
| 2026-05-05 17:49 | 53.31403 | -1.76344 | 19978 ft | 381 kts | 39° |
| 2026-05-05 17:50 | 53.33584 | -1.73811 | 20462 ft | 384 kts | 32° |
| 2026-05-05 17:50 | 53.35847 | -1.71397 | 20960 ft | 388 kts | 32° |
| 2026-05-05 17:50 | 53.38130 | -1.68961 | 21459 ft | 391 kts | 32° |
| 2026-05-05 17:50 | 53.40435 | -1.66495 | 21945 ft | 394 kts | 32° |
| 2026-05-05 17:51 | 53.42589 | -1.63653 | 22425 ft | 397 kts | 46° |
| 2026-05-05 17:51 | 53.44225 | -1.59986 | 22896 ft | 400 kts | 61° |
| 2026-05-05 17:51 | 53.45247 | -1.55638 | 23359 ft | 403 kts | 77° |
| 2026-05-05 17:51 | 53.45554 | -1.50969 | 23802 ft | 406 kts | 92° |
| 2026-05-05 17:52 | 53.45124 | -1.46282 | 24236 ft | 408 kts | 106° |
| 2026-05-05 17:52 | 53.44310 | -1.41710 | 24640 ft | 411 kts | 107° |
| 2026-05-05 17:52 | 53.43467 | -1.37051 | 25039 ft | 414 kts | 107° |
| 2026-05-05 17:52 | 53.42634 | -1.32482 | 25433 ft | 416 kts | 107° |
| 2026-05-05 17:53 | 53.41785 | -1.27829 | 25818 ft | 419 kts | 107° |
| 2026-05-05 17:53 | 53.40929 | -1.23143 | 26177 ft | 421 kts | 107° |
| 2026-05-05 17:53 | 53.40073 | -1.18436 | 26526 ft | 424 kts | 107° |
| 2026-05-05 17:53 | 53.39214 | -1.13702 | 26879 ft | 426 kts | 107° |
| 2026-05-05 17:54 | 53.38361 | -1.09008 | 27211 ft | 428 kts | 107° |
| 2026-05-05 17:54 | 53.37493 | -1.04240 | 27545 ft | 430 kts | 107° |
| 2026-05-05 17:54 | 53.36613 | -0.99439 | 27868 ft | 432 kts | 107° |
| 2026-05-05 17:54 | 53.35724 | -0.94623 | 28183 ft | 434 kts | 107° |
| 2026-05-05 17:55 | 53.34828 | -0.89791 | 28490 ft | 436 kts | 107° |
| 2026-05-05 17:55 | 53.33925 | -0.84931 | 28772 ft | 438 kts | 107° |
| 2026-05-05 17:55 | 53.33015 | -0.80058 | 29075 ft | 440 kts | 107° |
| 2026-05-05 17:55 | 53.32099 | -0.75158 | 29356 ft | 442 kts | 107° |
| 2026-05-05 17:56 | 53.31179 | -0.70248 | 29628 ft | 444 kts | 108° |
| 2026-05-05 17:56 | 53.30255 | -0.65315 | 29886 ft | 446 kts | 107° |
| 2026-05-05 17:56 | 53.29328 | -0.60363 | 30149 ft | 447 kts | 107° |
| 2026-05-05 17:56 | 53.28395 | -0.55389 | 30400 ft | 449 kts | 108° |
| 2026-05-05 17:57 | 53.27454 | -0.50400 | 30633 ft | 451 kts | 108° |
| 2026-05-05 17:57 | 53.26507 | -0.45404 | 30860 ft | 452 kts | 108° |
| 2026-05-05 17:57 | 53.25569 | -0.40456 | 31089 ft | 454 kts | 108° |
| 2026-05-05 17:57 | 53.24610 | -0.35418 | 31305 ft | 455 kts | 108° |
| 2026-05-05 17:58 | 53.23649 | -0.30382 | 31560 ft | 456 kts | 108° |
| 2026-05-05 17:58 | 53.22687 | -0.25343 | 31867 ft | 455 kts | 108° |
| 2026-05-05 17:58 | 53.21727 | -0.20323 | 32168 ft | 454 kts | 108° |
| 2026-05-05 17:58 | 53.20764 | -0.15319 | 32455 ft | 453 kts | 108° |
| 2026-05-05 17:59 | 53.19797 | -0.10320 | 32735 ft | 453 kts | 108° |
| 2026-05-05 17:59 | 53.18831 | -0.05332 | 32951 ft | 453 kts | 108° |
| 2026-05-05 17:59 | 53.17871 | -0.00370 | 33007 ft | 442 kts | 108° |
| 2026-05-05 18:00 | 53.16012 | 0.09202 | 33010 ft | 432 kts | 108° |
| 2026-05-05 18:00 | 53.14168 | 0.18660 | 33009 ft | 432 kts | 108° |
| 2026-05-05 18:01 | 53.12297 | 0.28171 | 33010 ft | 432 kts | 108° |
| 2026-05-05 18:01 | 53.10417 | 0.37671 | 33009 ft | 432 kts | 108° |
| 2026-05-05 18:02 | 53.08538 | 0.47164 | 33010 ft | 432 kts | 108° |
| 2026-05-05 18:02 | 53.06651 | 0.56646 | 33013 ft | 432 kts | 108° |
| 2026-05-05 18:03 | 53.04746 | 0.66128 | 33013 ft | 432 kts | 109° |
| 2026-05-05 18:03 | 53.02837 | 0.75589 | 33012 ft | 432 kts | 109° |
| 2026-05-05 18:04 | 53.00941 | 0.84983 | 33012 ft | 432 kts | 109° |
| 2026-05-05 18:04 | 52.99024 | 0.94431 | 33012 ft | 432 kts | 109° |
| 2026-05-05 18:05 | 52.97421 | 1.04017 | 33011 ft | 432 kts | 101° |
| 2026-05-05 18:05 | 52.96310 | 1.13805 | 33011 ft | 432 kts | 101° |
| 2026-05-05 18:06 | 52.95172 | 1.23592 | 33012 ft | 432 kts | 101° |
| 2026-05-05 18:06 | 52.94023 | 1.33363 | 33012 ft | 432 kts | 101° |
| 2026-05-05 18:07 | 52.92879 | 1.43063 | 33011 ft | 432 kts | 101° |
| 2026-05-05 18:07 | 52.92300 | 1.47936 | 32875 ft | 428 kts | 101° |
| 2026-05-05 18:07 | 52.91730 | 1.52722 | 32629 ft | 418 kts | 101° |
| 2026-05-05 18:07 | 52.91175 | 1.57373 | 32381 ft | 417 kts | 101° |
| 2026-05-05 18:08 | 52.90607 | 1.62128 | 32134 ft | 415 kts | 101° |
| 2026-05-05 18:08 | 52.90047 | 1.66811 | 31878 ft | 413 kts | 101° |
| 2026-05-05 18:08 | 52.89488 | 1.71471 | 31629 ft | 412 kts | 101° |
| 2026-05-05 18:08 | 52.88929 | 1.76110 | 31379 ft | 410 kts | 101° |
| 2026-05-05 18:09 | 52.88369 | 1.80732 | 31129 ft | 408 kts | 101° |
| 2026-05-05 18:09 | 52.87809 | 1.85330 | 30875 ft | 407 kts | 101° |
| 2026-05-05 18:09 | 52.87248 | 1.89910 | 30622 ft | 405 kts | 102° |
| 2026-05-05 18:09 | 52.86688 | 1.94470 | 30387 ft | 404 kts | 102° |
| 2026-05-05 18:10 | 52.86130 | 1.99017 | 30129 ft | 402 kts | 102° |
| 2026-05-05 18:10 | 52.85573 | 2.03544 | 29878 ft | 400 kts | 102° |
| 2026-05-05 18:10 | 52.85017 | 2.08045 | 29631 ft | 399 kts | 102° |
| 2026-05-05 18:10 | 52.84468 | 2.12464 | 29383 ft | 397 kts | 102° |
| 2026-05-05 18:11 | 52.83912 | 2.16926 | 29134 ft | 396 kts | 102° |
| 2026-05-05 18:11 | 52.82802 | 2.25809 | 28633 ft | 392 kts | 102° |
| 2026-05-05 18:11 | 52.82248 | 2.30218 | 28383 ft | 391 kts | 102° |
| 2026-05-05 18:12 | 52.81695 | 2.34595 | 28133 ft | 386 kts | 102° |
| 2026-05-05 18:12 | 52.81144 | 2.38913 | 27731 ft | 382 kts | 102° |
| 2026-05-05 18:12 | 52.80597 | 2.43181 | 27304 ft | 378 kts | 102° |
| 2026-05-05 18:12 | 52.80055 | 2.47409 | 26880 ft | 375 kts | 102° |
| 2026-05-05 18:13 | 52.79518 | 2.51611 | 26447 ft | 371 kts | 102° |
| 2026-05-05 18:13 | 52.78986 | 2.55767 | 25926 ft | 371 kts | 102° |
| 2026-05-05 18:13 | 52.78449 | 2.59936 | 25353 ft | 371 kts | 102° |
| 2026-05-05 18:13 | 52.77916 | 2.64089 | 24880 ft | 369 kts | 102° |
| 2026-05-05 18:14 | 52.77385 | 2.68230 | 24412 ft | 366 kts | 102° |
| 2026-05-05 18:14 | 52.76864 | 2.72272 | 23950 ft | 364 kts | 102° |
| 2026-05-05 18:14 | 52.76326 | 2.76385 | 23483 ft | 361 kts | 102° |
| 2026-05-05 18:14 | 52.75799 | 2.80403 | 23034 ft | 359 kts | 102° |
| 2026-05-05 18:15 | 52.75278 | 2.84380 | 22588 ft | 356 kts | 102° |
| 2026-05-05 18:15 | 52.74752 | 2.88362 | 22151 ft | 354 kts | 104° |
| 2026-05-05 18:15 | 52.74073 | 2.92243 | 21722 ft | 351 kts | 107° |
| 2026-05-05 18:15 | 52.73329 | 2.96072 | 21295 ft | 349 kts | 108° |
| 2026-05-05 18:16 | 52.72559 | 2.99855 | 20867 ft | 347 kts | 109° |
| 2026-05-05 18:16 | 52.71785 | 3.03600 | 20441 ft | 344 kts | 109° |
| 2026-05-05 18:16 | 52.71014 | 3.07330 | 20031 ft | 342 kts | 109° |
| 2026-05-05 18:16 | 52.70254 | 3.11032 | 19618 ft | 340 kts | 109° |
| 2026-05-05 18:17 | 52.69503 | 3.14720 | 19205 ft | 338 kts | 109° |
| 2026-05-05 18:17 | 52.68760 | 3.18380 | 18799 ft | 336 kts | 109° |
| 2026-05-05 18:17 | 52.68022 | 3.22018 | 18402 ft | 334 kts | 109° |
| 2026-05-05 18:17 | 52.67288 | 3.25636 | 17996 ft | 332 kts | 109° |
| 2026-05-05 18:18 | 52.66556 | 3.29227 | 17605 ft | 330 kts | 109° |
| 2026-05-05 18:18 | 52.65827 | 3.32795 | 17208 ft | 328 kts | 109° |
| 2026-05-05 18:18 | 52.65101 | 3.36349 | 16829 ft | 326 kts | 109° |
| 2026-05-05 18:18 | 52.64381 | 3.39874 | 16443 ft | 324 kts | 109° |
| 2026-05-05 18:19 | 52.63903 | 3.42201 | 16198 ft | 323 kts | 109° |
| 2026-05-05 18:19 | 52.62943 | 3.46869 | 15702 ft | 321 kts | 109° |
| 2026-05-05 18:19 | 52.62231 | 3.50333 | 15334 ft | 319 kts | 109° |
| 2026-05-05 18:19 | 52.61762 | 3.52615 | 15093 ft | 318 kts | 109° |
| 2026-05-05 18:20 | 52.60816 | 3.57210 | 14602 ft | 315 kts | 109° |
| 2026-05-05 18:20 | 52.60350 | 3.59465 | 14366 ft | 314 kts | 109° |
| 2026-05-05 18:20 | 52.59419 | 3.63955 | 13891 ft | 312 kts | 109° |
| 2026-05-05 18:20 | 52.58721 | 3.67318 | 13526 ft | 310 kts | 109° |
| 2026-05-05 18:21 | 52.58250 | 3.69586 | 13276 ft | 309 kts | 109° |
| 2026-05-05 18:21 | 52.57333 | 3.74002 | 12791 ft | 307 kts | 109° |
| 2026-05-05 18:21 | 52.56876 | 3.76192 | 12548 ft | 306 kts | 109° |
| 2026-05-05 18:21 | 52.55954 | 3.80597 | 12055 ft | 304 kts | 109° |
| 2026-05-05 18:22 | 52.55497 | 3.82765 | 11810 ft | 302 kts | 109° |
| 2026-05-05 18:22 | 52.54808 | 3.86021 | 11439 ft | 301 kts | 109° |
| 2026-05-05 18:22 | 52.54109 | 3.89245 | 11068 ft | 299 kts | 110° |
| 2026-05-05 18:22 | 52.53370 | 3.92433 | 10683 ft | 297 kts | 111° |
| 2026-05-05 18:23 | 52.52613 | 3.95588 | 10304 ft | 296 kts | 112° |
| 2026-05-05 18:23 | 52.51852 | 3.98718 | 9923 ft | 294 kts | 112° |
| 2026-05-05 18:23 | 52.51066 | 4.01585 | 9584 ft | 291 kts | 124° |
| 2026-05-05 18:23 | 52.49979 | 4.03702 | 9278 ft | 287 kts | 135° |
| 2026-05-05 18:24 | 52.48547 | 4.05975 | 8860 ft | 287 kts | 137° |
| 2026-05-05 18:24 | 52.47099 | 4.08209 | 8456 ft | 285 kts | 137° |
| 2026-05-05 18:24 | 52.45657 | 4.10426 | 8050 ft | 283 kts | 137° |
| 2026-05-05 18:24 | 52.44239 | 4.12605 | 7657 ft | 282 kts | 137° |
| 2026-05-05 18:25 | 52.42813 | 4.14790 | 7248 ft | 280 kts | 137° |
| 2026-05-05 18:25 | 52.41854 | 4.16261 | 6973 ft | 279 kts | 137° |
| 2026-05-05 18:25 | 52.39965 | 4.19158 | 6418 ft | 277 kts | 137° |
| 2026-05-05 18:25 | 52.38584 | 4.21275 | 6011 ft | 275 kts | 137° |
| 2026-05-05 18:26 | 52.37193 | 4.23405 | 5602 ft | 274 kts | 137° |
| 2026-05-05 18:26 | 52.35806 | 4.25528 | 5179 ft | 272 kts | 137° |
| 2026-05-05 18:26 | 52.34429 | 4.27638 | 4751 ft | 270 kts | 137° |
| 2026-05-05 18:26 | 52.33471 | 4.29107 | 4452 ft | 269 kts | 137° |
| 2026-05-05 18:27 | 52.32107 | 4.31200 | 4029 ft | 267 kts | 137° |
| 2026-05-05 18:27 | 52.30757 | 4.33268 | 3605 ft | 266 kts | 137° |
| 2026-05-05 18:27 | 52.29412 | 4.35328 | 3165 ft | 264 kts | 137° |
| 2026-05-05 18:27 | 52.28076 | 4.37377 | 2729 ft | 263 kts | 137° |
| 2026-05-05 18:28 | 52.25541 | 4.41258 | 2436 ft | 237 kts | 137° |
| 2026-05-05 18:28 | 52.24362 | 4.43065 | 2203 ft | 231 kts | 137° |
| 2026-05-05 18:28 | 52.23218 | 4.44822 | 2090 ft | 219 kts | 137° |
| 2026-05-05 18:29 | 52.22197 | 4.46528 | 2091 ft | 202 kts | 123° |
| 2026-05-05 18:29 | 52.21769 | 4.48597 | 2126 ft | 191 kts | 97° |
| 2026-05-05 18:29 | 52.21649 | 4.50754 | 2099 ft | 191 kts | 93° |
| 2026-05-05 18:29 | 52.21579 | 4.52912 | 2096 ft | 191 kts | 92° |
| 2026-05-05 18:30 | 52.21758 | 4.55037 | 2099 ft | 190 kts | 68° |
| 2026-05-05 18:30 | 52.22413 | 4.56903 | 2094 ft | 190 kts | 56° |
| 2026-05-05 18:30 | 52.23094 | 4.58655 | 2041 ft | 173 kts | 57° |
| 2026-05-05 18:30 | 52.23695 | 4.60207 | 1889 ft | 152 kts | 56° |
| 2026-05-05 18:31 | 52.24244 | 4.61625 | 1713 ft | 146 kts | 57° |
| 2026-05-05 18:31 | 52.24777 | 4.63005 | 1518 ft | 146 kts | 56° |
| 2026-05-05 18:31 | 52.25320 | 4.64407 | 1339 ft | 146 kts | 56° |
| 2026-05-05 18:31 | 52.25857 | 4.65800 | 1143 ft | 145 kts | 57° |
| 2026-05-05 18:32 | 52.26394 | 4.67191 | 950 ft | 145 kts | 57° |
| 2026-05-05 18:32 | 52.26930 | 4.68581 | 758 ft | 144 kts | 57° |
| 2026-05-05 18:32 | 52.27461 | 4.69958 | 570 ft | 143 kts | 57° |
| 2026-05-05 18:32 | 52.27988 | 4.71331 | 377 ft | 143 kts | 58° |
| 2026-05-05 18:33 | 52.28505 | 4.72711 | 195 ft | 142 kts | 56° |
| 2026-05-05 18:33 | 52.29042 | 4.74057 | 38 ft | 141 kts | 57° |
| 2026-05-05 18:33 | 52.29545 | 4.75371 | -2 ft | 120 kts | 57° |
| 2026-05-05 18:33 | 52.29883 | 4.76246 | -4 ft | 64 kts | 57° |
| 2026-05-05 18:34 | 52.30118 | 4.76860 | -3 ft | 61 kts | 57° |
| 2026-05-05 18:34 | 52.30323 | 4.77393 | -4 ft | 50 kts | 57° |
| 2026-05-05 18:34 | 52.30454 | 4.77635 | -2 ft | 16 kts | 342° |
| 2026-05-05 18:34 | 52.30524 | 4.77583 | -3 ft | 0 kts | 332° |
| 2026-05-05 18:38 | 52.30554 | 4.77559 | -3 ft | 14 kts | 336° |
| 2026-05-05 18:38 | 52.30690 | 4.77593 | -3 ft | 25 kts | 358° |
| 2026-05-05 18:38 | 52.30877 | 4.77608 | -3 ft | 28 kts | 2° |
| 2026-05-05 18:39 | 52.31074 | 4.77626 | -3 ft | 26 kts | 3° |
| 2026-05-05 18:39 | 52.31211 | 4.77638 | -3 ft | 17 kts | 2° |
| 2026-05-05 18:39 | 52.31332 | 4.77651 | -3 ft | 12 kts | 2° |
| 2026-05-05 18:39 | 52.31412 | 4.77655 | -3 ft | 9 kts | 356° |
| 2026-05-05 18:40 | 52.31437 | 4.77646 | -3 ft | 0 kts | 342° |
| 2026-05-05 18:41 | 52.31467 | 4.77627 | -3 ft | 11 kts | 335° |
| 2026-05-05 18:41 | 52.31518 | 4.77560 | -3 ft | 8 kts | 310° |
| 2026-05-05 18:41 | 52.31543 | 4.77504 | -3 ft | 10 kts | 295° |
| 2026-05-05 18:42 | 52.31572 | 4.77417 | -3 ft | 13 kts | 296° |
| 2026-05-05 18:42 | 52.31575 | 4.77204 | -3 ft | 24 kts | 267° |
| 2026-05-05 18:42 | 52.31564 | 4.76892 | -3 ft | 28 kts | 268° |
| 2026-05-05 18:42 | 52.31553 | 4.76587 | -3 ft | 28 kts | 267° |
| 2026-05-05 18:43 | 52.31542 | 4.76266 | -3 ft | 29 kts | 266° |
| 2026-05-05 18:43 | 52.31531 | 4.75932 | -3 ft | 30 kts | 267° |
| 2026-05-05 18:43 | 52.31519 | 4.75595 | -3 ft | 26 kts | 266° |
| 2026-05-05 18:43 | 52.31487 | 4.75461 | -3 ft | 7 kts | 182° |
| 2026-05-05 18:44 | 52.31432 | 4.75469 | -3 ft | 12 kts | 177° |
| 2026-05-05 18:44 | 52.31321 | 4.75481 | -3 ft | 20 kts | 176° |
| 2026-05-05 18:44 | 52.31167 | 4.75495 | -3 ft | 23 kts | 176° |
| 2026-05-05 18:44 | 52.31061 | 4.75379 | -3 ft | 18 kts | 236° |
| 2026-05-05 18:45 | 52.31004 | 4.75332 | -3 ft | 6 kts | 142° |
| 2026-05-05 18:45 | 52.30986 | 4.75354 | -3 ft | 0 kts | 146° |